createdAt,value
2023-03-07T00:01:00.070Z,90.84
2023-03-07T00:06:02.241Z,90.20
2023-03-07T00:10:52.727Z,89.76
2023-03-07T00:15:55.021Z,90.77
2023-03-07T00:20:54.492Z,90.61
2023-03-07T00:26:05.106Z,91.32
2023-03-07T00:31:00.413Z,91.82
2023-03-07T00:36:02.200Z,90.80
2023-03-07T00:41:11.357Z,90.91
2023-03-07T00:46:06.952Z,89.67
2023-03-07T00:50:58.170Z,89.54
2023-03-07T00:56:00.108Z,90.85
2023-03-07T01:00:56.443Z,90.04
2023-03-07T01:05:51.389Z,89.74
2023-03-07T01:10:48.342Z,88.96
2023-03-07T01:15:42.440Z,88.42
2023-03-07T01:20:36.339Z,87.40
2023-03-07T01:25:29.715Z,88.93
2023-03-07T01:30:31.072Z,86.77
2023-03-07T01:35:24.462Z,87.48
2023-03-07T01:40:20.685Z,86.12
2023-03-07T01:45:29.055Z,88.50
2023-03-07T01:50:27.177Z,86.23
2023-03-07T01:55:22.952Z,87.93
2023-03-07T02:00:25.725Z,87.33
2023-03-07T02:05:19.309Z,87.12
2023-03-07T02:10:15.644Z,83.85
2023-03-07T02:15:18.282Z,87.02
2023-03-07T02:20:23.429Z,85.58
2023-03-07T02:25:23.255Z,87.51
2023-03-07T02:30:20.441Z,86.81
2023-03-07T02:35:21.209Z,84.00
2023-03-07T02:40:26.592Z,87.64
2023-03-07T02:45:40.462Z,86.25
2023-03-07T02:50:33.738Z,87.92
2023-03-07T02:55:26.763Z,88.55
2023-03-07T03:00:26.659Z,88.08
2023-03-07T03:05:20.163Z,87.56
2023-03-07T03:10:14.747Z,88.68
2023-03-07T03:15:16.416Z,88.47
2023-03-07T03:20:14.030Z,89.35
2023-03-07T03:25:15.267Z,87.45
2023-03-07T03:30:10.716Z,84.96
2023-03-07T03:35:05.289Z,84.71
2023-03-07T03:39:56.911Z,83.55
2023-03-07T03:44:53.834Z,82.63
2023-03-07T03:49:46.225Z,82.72
2023-03-07T03:54:38.735Z,83.08
2023-03-07T03:59:30.335Z,82.65
2023-03-07T04:04:25.667Z,83.94
2023-03-07T04:09:15.323Z,85.03
2023-03-07T04:14:09.768Z,84.03
2023-03-07T04:19:09.810Z,83.00
2023-03-07T04:24:06.947Z,84.31
2023-03-07T04:28:57.949Z,84.02
2023-03-07T04:34:00.492Z,83.28
2023-03-07T04:38:54.658Z,83.85
2023-03-07T04:44:00.574Z,83.96
2023-03-07T04:48:57.708Z,83.27
2023-03-07T04:53:59.739Z,84.39
2023-03-07T04:58:58.500Z,83.66
2023-03-07T05:03:53.956Z,82.42
2023-03-07T05:08:52.265Z,82.67
2023-03-07T05:13:47.912Z,82.58
2023-03-07T05:18:53.110Z,83.21
2023-03-07T05:23:52.488Z,83.40
2023-03-07T05:28:46.100Z,83.02
2023-03-07T05:33:44.151Z,82.77
2023-03-07T05:38:43.126Z,83.29
2023-03-07T05:43:42.753Z,82.21
2023-03-07T05:48:33.363Z,83.94
2023-03-07T05:53:23.655Z,83.50
2023-03-07T05:58:18.262Z,83.75
2023-03-07T06:03:12.280Z,82.95
2023-03-07T06:08:04.672Z,83.10
2023-03-07T06:12:59.463Z,82.91
2023-03-07T06:18:07.119Z,83.04
2023-03-07T06:23:01.343Z,83.19
2023-03-07T06:28:06.393Z,83.66
2023-03-07T06:33:00.929Z,84.28
2023-03-07T06:37:50.753Z,84.70
2023-03-07T06:42:48.976Z,85.46
2023-03-07T06:47:45.106Z,85.10
2023-03-07T06:52:37.613Z,84.39
2023-03-07T06:57:29.762Z,83.90
2023-03-07T07:02:24.926Z,83.06
2023-03-07T07:07:23.745Z,83.45
2023-03-07T07:12:19.418Z,83.56
2023-03-07T07:17:17.978Z,83.91
2023-03-07T07:22:15.826Z,83.84
2023-03-07T07:27:06.760Z,84.16
2023-03-07T07:32:06.049Z,84.83
2023-03-07T07:36:57.361Z,84.64
2023-03-07T07:41:50.729Z,83.75
2023-03-07T07:46:45.511Z,83.14
2023-03-07T07:51:45.151Z,83.22
2023-03-07T07:56:36.906Z,83.57
2023-03-07T08:01:31.682Z,82.69
2023-03-07T08:06:22.423Z,82.80
2023-03-07T08:11:16.715Z,83.11
2023-03-07T08:16:15.347Z,82.79
2023-03-07T08:21:05.853Z,83.06
2023-03-07T08:25:57.496Z,82.44
2023-03-07T08:30:55.031Z,83.11
2023-03-07T08:35:46.218Z,82.21
2023-03-07T08:40:36.494Z,83.04
2023-03-07T08:45:30.467Z,82.61
2023-03-07T08:50:25.840Z,83.73
2023-03-07T08:55:18.838Z,83.73
2023-03-07T09:00:13.245Z,83.96
2023-03-07T09:05:10.332Z,83.90
2023-03-07T09:10:07.855Z,83.67
2023-03-07T09:15:01.988Z,82.47
2023-03-07T09:19:53.058Z,83.43
2023-03-07T09:25:01.691Z,84.09
2023-03-07T09:30:08.609Z,83.56
2023-03-07T09:35:09.589Z,84.07
2023-03-07T09:40:14.742Z,83.93
2023-03-07T09:45:21.476Z,82.35
2023-03-07T09:50:42.584Z,82.27
2023-03-07T09:55:39.374Z,82.06
2023-03-07T10:00:33.770Z,83.32
2023-03-07T10:05:38.420Z,82.01
2023-03-07T10:10:37.856Z,82.29
2023-03-07T10:15:42.663Z,84.62
2023-03-07T10:20:45.314Z,83.54
2023-03-07T10:25:47.770Z,82.75
2023-03-07T10:30:43.659Z,81.56
2023-03-07T10:35:44.919Z,81.83
2023-03-07T10:40:45.672Z,81.50
2023-03-07T10:45:40.110Z,82.80
2023-03-07T10:50:38.695Z,83.60
2023-03-07T10:55:41.629Z,83.46
2023-03-07T11:00:40.710Z,83.45
2023-03-07T11:05:36.970Z,82.24
2023-03-07T11:10:46.355Z,82.81
2023-03-07T11:15:45.714Z,83.55
2023-03-07T11:20:51.280Z,82.68
2023-03-07T11:25:45.662Z,82.71
2023-03-07T11:30:45.040Z,82.72
2023-03-07T11:35:56.624Z,81.73
2023-03-07T11:40:58.256Z,81.42
2023-03-07T11:46:06.583Z,81.74
2023-03-07T11:51:02.130Z,83.34
2023-03-07T11:56:00.219Z,84.32
2023-03-07T12:01:02.295Z,83.60
2023-03-07T12:06:09.836Z,83.34
2023-03-07T12:11:19.055Z,82.51
2023-03-07T12:16:15.513Z,81.79
2023-03-07T12:21:20.612Z,81.97
2023-03-07T12:26:19.401Z,80.69
2023-03-07T12:31:15.957Z,80.50
2023-03-07T12:36:10.446Z,82.48
2023-03-07T12:41:09.961Z,81.82
2023-03-07T12:46:14.420Z,80.51
2023-03-07T12:51:12.257Z,80.35
2023-03-07T12:56:07.514Z,81.31
2023-03-07T13:01:01.693Z,80.98
2023-03-07T13:05:56.570Z,82.87
2023-03-07T13:10:49.943Z,83.61
2023-03-07T13:16:04.459Z,84.11
2023-03-07T13:21:10.015Z,83.13
2023-03-07T13:26:08.120Z,83.65
2023-03-07T13:31:18.939Z,84.37
2023-03-07T13:36:36.156Z,84.71
2023-03-07T13:41:45.473Z,83.95
2023-03-07T13:47:02.963Z,85.37
2023-03-07T13:52:12.843Z,86.43
2023-03-07T13:57:13.281Z,85.96
2023-03-07T14:02:21.336Z,85.17
2023-03-07T14:07:17.766Z,83.64
2023-03-07T14:12:23.539Z,82.94
2023-03-07T14:17:37.824Z,82.14
2023-03-07T14:22:39.322Z,82.25
2023-03-07T14:27:36.578Z,82.83
2023-03-07T14:32:30.139Z,83.64
2023-03-07T14:37:22.080Z,84.40
2023-03-07T14:42:25.099Z,85.24
2023-03-07T14:47:31.181Z,84.46
2023-03-07T14:52:31.254Z,83.47
2023-03-07T14:57:26.906Z,83.97
2023-03-07T15:02:24.406Z,85.16
2023-03-07T15:07:25.740Z,85.09
2023-03-07T15:12:18.800Z,82.86
2023-03-07T15:17:15.044Z,84.42
2023-03-07T15:22:12.711Z,83.43
2023-03-07T15:27:12.051Z,83.27
2023-03-07T15:32:26.585Z,83.73
2023-03-07T15:37:33.201Z,82.42
2023-03-07T15:42:40.211Z,82.49
2023-03-07T15:47:40.087Z,82.15
2023-03-07T15:52:37.552Z,82.29
2023-03-07T15:57:36.024Z,82.27
2023-03-07T16:02:47.076Z,82.35
2023-03-07T16:07:40.491Z,81.95
2023-03-07T16:12:50.062Z,82.01
2023-03-07T16:17:42.954Z,81.75
2023-03-07T16:22:36.570Z,81.31
2023-03-07T16:27:39.464Z,81.86
2023-03-07T16:32:37.721Z,81.56
2023-03-07T16:37:34.533Z,81.14
2023-03-07T16:42:30.737Z,82.26
2023-03-07T16:47:22.468Z,82.13
2023-03-07T16:52:19.240Z,81.88
2023-03-07T16:57:27.114Z,81.67
2023-03-07T17:02:27.245Z,82.09
2023-03-07T17:07:26.918Z,82.33
2023-03-07T17:12:20.756Z,82.26
2023-03-07T17:17:19.487Z,81.95
2023-03-07T17:22:19.905Z,81.98
2023-03-07T17:27:14.073Z,80.99
2023-03-07T17:32:08.948Z,80.26
2023-03-07T17:37:12.335Z,83.03
2023-03-07T17:42:03.561Z,83.74
2023-03-07T17:47:08.029Z,84.14
2023-03-07T17:51:59.685Z,84.22
2023-03-07T17:56:53.801Z,84.34
2023-03-07T18:01:46.299Z,84.60
2023-03-07T18:06:41.055Z,83.09
2023-03-07T18:11:39.682Z,83.04
2023-03-07T18:16:32.960Z,83.35
2023-03-07T18:21:25.828Z,83.24
2023-03-07T18:26:19.583Z,82.38
2023-03-07T18:31:11.765Z,81.80
2023-03-07T18:36:08.367Z,79.68
2023-03-07T18:41:11.647Z,79.28
2023-03-07T18:46:09.468Z,78.22
2023-03-07T18:51:07.778Z,77.18
2023-03-07T18:55:59.109Z,75.51
2023-03-07T19:00:55.674Z,74.67
2023-03-07T19:05:57.228Z,75.38
2023-03-07T19:10:51.300Z,75.34
2023-03-07T19:15:44.143Z,75.51
2023-03-07T19:20:39.941Z,75.51
2023-03-07T19:25:39.855Z,75.65
2023-03-07T19:30:40.473Z,75.76
2023-03-07T19:35:33.415Z,76.25
2023-03-07T19:40:41.092Z,76.45
2023-03-07T19:45:43.935Z,77.10
2023-03-07T19:50:33.910Z,77.79
2023-03-07T19:55:24.952Z,77.13
2023-03-07T20:00:17.862Z,77.45
2023-03-07T20:05:21.380Z,76.87
2023-03-07T20:10:14.798Z,77.19
2023-03-07T20:15:10.490Z,76.96
2023-03-07T20:20:04.337Z,77.51
2023-03-07T20:25:03.227Z,77.73
2023-03-07T20:29:59.852Z,77.38
2023-03-07T20:34:53.629Z,78.20
2023-03-07T20:39:47.483Z,78.28
2023-03-07T20:44:44.335Z,78.77
2023-03-07T20:49:38.173Z,79.32
2023-03-07T20:54:27.851Z,79.14
2023-03-07T20:59:25.554Z,79.19
2023-03-07T21:04:21.689Z,78.83
2023-03-07T21:09:15.622Z,79.41
2023-03-07T21:14:07.471Z,79.61
2023-03-07T21:19:01.871Z,78.87
2023-03-07T21:23:54.611Z,79.66
2023-03-07T21:28:47.544Z,79.87
2023-03-07T21:33:43.663Z,80.18
2023-03-07T21:38:41.734Z,80.15
2023-03-07T21:43:41.390Z,81.05
2023-03-07T21:48:50.694Z,83.58
2023-03-07T21:53:45.547Z,82.05
2023-03-07T21:58:43.292Z,82.21
2023-03-07T22:03:36.563Z,80.84
2023-03-07T22:08:34.614Z,81.36
2023-03-07T22:13:27.855Z,80.55
2023-03-07T22:18:20.307Z,80.42
2023-03-07T22:23:13.613Z,80.10
2023-03-07T22:28:10.149Z,79.67
2023-03-07T22:33:08.376Z,79.15
2023-03-07T22:38:01.658Z,79.15
2023-03-07T22:42:54.186Z,79.84
2023-03-07T22:47:44.976Z,80.16
2023-03-07T22:52:34.560Z,80.37
2023-03-07T22:57:34.708Z,80.28
2023-03-07T23:02:32.958Z,79.72
2023-03-07T23:07:23.529Z,79.48
2023-03-07T23:12:15.449Z,79.22
2023-03-07T23:17:09.985Z,78.85
2023-03-07T23:22:03.031Z,79.40
2023-03-07T23:26:58.224Z,79.10
2023-03-07T23:31:51.401Z,78.99
2023-03-07T23:36:46.969Z,78.64
2023-03-07T23:41:38.584Z,78.86
2023-03-07T23:46:29.581Z,78.74
2023-03-07T23:51:20.090Z,78.97
2023-03-07T23:56:15.695Z,78.92
